sensor_id;sensor_type;location;lat;lon;timestamp;temperature;humidity
71436;SHT31;59251;51.326;12.370;2023-09-30T00:02:26;16.73;87.75
71436;SHT31;59251;51.326;12.370;2023-09-30T00:04:53;16.72;88.27
71436;SHT31;59251;51.326;12.370;2023-09-30T00:07:19;16.68;89.14
71436;SHT31;59251;51.326;12.370;2023-09-30T00:09:48;16.65;88.81
71436;SHT31;59251;51.326;12.370;2023-09-30T00:12:17;16.59;89.37
71436;SHT31;59251;51.326;12.370;2023-09-30T00:14:43;16.58;88.86
71436;SHT31;59251;51.326;12.370;2023-09-30T00:17:10;16.62;89.04
71436;SHT31;59251;51.326;12.370;2023-09-30T00:19:37;16.55;88.81
71436;SHT31;59251;51.326;12.370;2023-09-30T00:22:03;16.55;88.02
71436;SHT31;59251;51.326;12.370;2023-09-30T00:24:30;16.56;86.96
71436;SHT31;59251;51.326;12.370;2023-09-30T00:26:58;16.49;86.53
71436;SHT31;59251;51.326;12.370;2023-09-30T00:29:25;16.56;86.53
71436;SHT31;59251;51.326;12.370;2023-09-30T00:31:52;16.52;86.38
71436;SHT31;59251;51.326;12.370;2023-09-30T00:34:19;16.54;86.64
71436;SHT31;59251;51.326;12.370;2023-09-30T00:36:45;16.42;85.73
71436;SHT31;59251;51.326;12.370;2023-09-30T00:39:12;16.44;85.41
71436;SHT31;59251;51.326;12.370;2023-09-30T00:41:39;16.44;85.26
71436;SHT31;59251;51.326;12.370;2023-09-30T00:44:07;16.38;85.35
71436;SHT31;59251;51.326;12.370;2023-09-30T00:46:36;16.38;85.19
71436;SHT31;59251;51.326;12.370;2023-09-30T00:49:03;16.31;84.85
71436;SHT31;59251;51.326;12.370;2023-09-30T00:51:30;16.34;84.80
71436;SHT31;59251;51.326;12.370;2023-09-30T00:53:59;16.29;84.90
71436;SHT31;59251;51.326;12.370;2023-09-30T00:56:27;16.24;85.00
71436;SHT31;59251;51.326;12.370;2023-09-30T00:58:55;16.24;84.83
71436;SHT31;59251;51.326;12.370;2023-09-30T01:01:24;16.11;85.41
71436;SHT31;59251;51.326;12.370;2023-09-30T01:03:51;16.14;85.22
71436;SHT31;59251;51.326;12.370;2023-09-30T01:06:18;16.04;85.57
71436;SHT31;59251;51.326;12.370;2023-09-30T01:08:44;15.97;86.08
71436;SHT31;59251;51.326;12.370;2023-09-30T01:11:11;15.94;86.24
71436;SHT31;59251;51.326;12.370;2023-09-30T01:13:39;15.83;86.34
71436;SHT31;59251;51.326;12.370;2023-09-30T01:16:07;15.82;86.54
71436;SHT31;59251;51.326;12.370;2023-09-30T01:18:37;15.77;86.84
71436;SHT31;59251;51.326;12.370;2023-09-30T01:21:05;15.74;87.13
71436;SHT31;59251;51.326;12.370;2023-09-30T01:23:34;15.73;87.33
71436;SHT31;59251;51.326;12.370;2023-09-30T01:26:02;15.73;87.61
71436;SHT31;59251;51.326;12.370;2023-09-30T01:28:30;15.66;87.37
71436;SHT31;59251;51.326;12.370;2023-09-30T01:30:57;15.65;87.48
71436;SHT31;59251;51.326;12.370;2023-09-30T01:33:24;15.66;87.94
71436;SHT31;59251;51.326;12.370;2023-09-30T01:35:50;15.65;87.68
71436;SHT31;59251;51.326;12.370;2023-09-30T01:38:17;15.69;87.76
71436;SHT31;59251;51.326;12.370;2023-09-30T01:40:47;15.69;87.93
71436;SHT31;59251;51.326;12.370;2023-09-30T01:43:14;15.70;87.99
71436;SHT31;59251;51.326;12.370;2023-09-30T01:45:41;15.65;88.24
71436;SHT31;59251;51.326;12.370;2023-09-30T01:48:08;15.60;88.11
71436;SHT31;59251;51.326;12.370;2023-09-30T01:50:36;15.58;87.71
71436;SHT31;59251;51.326;12.370;2023-09-30T01:53:03;15.46;87.64
71436;SHT31;59251;51.326;12.370;2023-09-30T01:55:30;15.36;87.63
71436;SHT31;59251;51.326;12.370;2023-09-30T01:57:58;15.38;87.54
71436;SHT31;59251;51.326;12.370;2023-09-30T02:00:25;15.29;87.81
71436;SHT31;59251;51.326;12.370;2023-09-30T02:02:53;15.21;88.07
71436;SHT31;59251;51.326;12.370;2023-09-30T02:05:21;15.18;88.31
71436;SHT31;59251;51.326;12.370;2023-09-30T02:07:49;15.10;88.82
71436;SHT31;59251;51.326;12.370;2023-09-30T02:10:16;15.08;88.56
71436;SHT31;59251;51.326;12.370;2023-09-30T02:12:44;14.98;88.81
71436;SHT31;59251;51.326;12.370;2023-09-30T02:15:13;15.01;89.09
71436;SHT31;59251;51.326;12.370;2023-09-30T02:17:40;14.90;89.17
71436;SHT31;59251;51.326;12.370;2023-09-30T02:20:11;14.84;89.42
71436;SHT31;59251;51.326;12.370;2023-09-30T02:22:42;14.73;89.61
71436;SHT31;59251;51.326;12.370;2023-09-30T02:25:10;14.72;89.65
71436;SHT31;59251;51.326;12.370;2023-09-30T02:27:39;14.66;89.71
71436;SHT31;59251;51.326;12.370;2023-09-30T02:30:08;14.67;89.72
71436;SHT31;59251;51.326;12.370;2023-09-30T02:32:38;14.63;89.92
71436;SHT31;59251;51.326;12.370;2023-09-30T02:35:07;14.74;89.72
71436;SHT31;59251;51.326;12.370;2023-09-30T02:37:36;14.73;89.79
71436;SHT31;59251;51.326;12.370;2023-09-30T02:40:03;14.83;89.24
71436;SHT31;59251;51.326;12.370;2023-09-30T02:42:35;14.85;88.98
71436;SHT31;59251;51.326;12.370;2023-09-30T02:45:02;14.94;88.87
71436;SHT31;59251;51.326;12.370;2023-09-30T02:47:28;14.91;88.98
71436;SHT31;59251;51.326;12.370;2023-09-30T02:49:58;14.76;89.29
71436;SHT31;59251;51.326;12.370;2023-09-30T02:52:25;14.90;88.83
71436;SHT31;59251;51.326;12.370;2023-09-30T02:54:52;14.88;88.89
71436;SHT31;59251;51.326;12.370;2023-09-30T02:57:19;14.90;89.01
71436;SHT31;59251;51.326;12.370;2023-09-30T02:59:47;14.91;88.93
71436;SHT31;59251;51.326;12.370;2023-09-30T03:02:13;14.85;89.12
71436;SHT31;59251;51.326;12.370;2023-09-30T03:04:43;14.80;89.17
71436;SHT31;59251;51.326;12.370;2023-09-30T03:07:13;14.74;89.72
71436;SHT31;59251;51.326;12.370;2023-09-30T03:09:40;14.73;89.81
71436;SHT31;59251;51.326;12.370;2023-09-30T03:12:07;14.63;90.30
71436;SHT31;59251;51.326;12.370;2023-09-30T03:14:34;14.64;90.31
71436;SHT31;59251;51.326;12.370;2023-09-30T03:17:01;14.57;90.32
71436;SHT31;59251;51.326;12.370;2023-09-30T03:19:28;14.50;90.58
71436;SHT31;59251;51.326;12.370;2023-09-30T03:21:55;14.39;91.03
71436;SHT31;59251;51.326;12.370;2023-09-30T03:24:24;14.42;90.87
71436;SHT31;59251;51.326;12.370;2023-09-30T03:26:52;14.35;91.03
71436;SHT31;59251;51.326;12.370;2023-09-30T03:29:19;14.29;91.25
71436;SHT31;59251;51.326;12.370;2023-09-30T03:31:46;14.12;91.71
71436;SHT31;59251;51.326;12.370;2023-09-30T03:34:12;14.05;92.05
71436;SHT31;59251;51.326;12.370;2023-09-30T03:36:41;13.92;92.82
71436;SHT31;59251;51.326;12.370;2023-09-30T03:39:08;13.85;93.01
71436;SHT31;59251;51.326;12.370;2023-09-30T03:41:41;13.84;93.07
71436;SHT31;59251;51.326;12.370;2023-09-30T03:44:08;13.82;93.12
71436;SHT31;59251;51.326;12.370;2023-09-30T03:46:35;13.67;93.59
71436;SHT31;59251;51.326;12.370;2023-09-30T03:49:01;13.74;93.38
71436;SHT31;59251;51.326;12.370;2023-09-30T03:51:29;13.61;93.76
71436;SHT31;59251;51.326;12.370;2023-09-30T03:53:55;13.78;93.18
71436;SHT31;59251;51.326;12.370;2023-09-30T03:56:22;13.74;93.17
71436;SHT31;59251;51.326;12.370;2023-09-30T03:58:50;13.75;93.07
71436;SHT31;59251;51.326;12.370;2023-09-30T04:01:18;13.66;93.13
71436;SHT31;59251;51.326;12.370;2023-09-30T04:03:45;13.66;92.98
71436;SHT31;59251;51.326;12.370;2023-09-30T04:06:12;13.61;93.07
71436;SHT31;59251;51.326;12.370;2023-09-30T04:08:39;13.58;93.10
71436;SHT31;59251;51.326;12.370;2023-09-30T04:11:06;13.42;93.62
71436;SHT31;59251;51.326;12.370;2023-09-30T04:13:32;13.50;93.30
71436;SHT31;59251;51.326;12.370;2023-09-30T04:16:01;13.44;93.35
71436;SHT31;59251;51.326;12.370;2023-09-30T04:18:28;13.44;93.38
71436;SHT31;59251;51.326;12.370;2023-09-30T04:20:55;13.43;93.56
71436;SHT31;59251;51.326;12.370;2023-09-30T04:23:22;13.36;93.73
71436;SHT31;59251;51.326;12.370;2023-09-30T04:25:49;13.27;93.57
71436;SHT31;59251;51.326;12.370;2023-09-30T04:28:16;13.15;94.14
71436;SHT31;59251;51.326;12.370;2023-09-30T04:30:47;13.30;93.76
71436;SHT31;59251;51.326;12.370;2023-09-30T04:33:16;13.33;93.63
71436;SHT31;59251;51.326;12.370;2023-09-30T04:35:43;13.40;93.34
71436;SHT31;59251;51.326;12.370;2023-09-30T04:38:11;13.36;93.13
71436;SHT31;59251;51.326;12.370;2023-09-30T04:40:38;13.36;93.22
71436;SHT31;59251;51.326;12.370;2023-09-30T04:43:05;13.30;93.36
71436;SHT31;59251;51.326;12.370;2023-09-30T04:45:32;13.32;93.30
71436;SHT31;59251;51.326;12.370;2023-09-30T04:47:59;13.18;93.66
71436;SHT31;59251;51.326;12.370;2023-09-30T04:50:28;13.05;94.08
71436;SHT31;59251;51.326;12.370;2023-09-30T04:52:56;13.12;94.03
71436;SHT31;59251;51.326;12.370;2023-09-30T04:55:23;13.12;93.71
71436;SHT31;59251;51.326;12.370;2023-09-30T04:57:50;13.03;94.05
71436;SHT31;59251;51.326;12.370;2023-09-30T05:00:18;13.06;94.19
71436;SHT31;59251;51.326;12.370;2023-09-30T05:02:50;13.19;93.59
71436;SHT31;59251;51.326;12.370;2023-09-30T05:05:18;13.22;93.50
71436;SHT31;59251;51.326;12.370;2023-09-30T05:07:46;13.22;93.46
71436;SHT31;59251;51.326;12.370;2023-09-30T05:10:13;13.23;93.40
71436;SHT31;59251;51.326;12.370;2023-09-30T05:12:41;13.23;93.26
71436;SHT31;59251;51.326;12.370;2023-09-30T05:15:11;13.20;93.48
71436;SHT31;59251;51.326;12.370;2023-09-30T05:17:40;13.03;93.98
71436;SHT31;59251;51.326;12.370;2023-09-30T05:20:08;13.10;93.97
71436;SHT31;59251;51.326;12.370;2023-09-30T05:22:34;13.16;93.71
71436;SHT31;59251;51.326;12.370;2023-09-30T05:25:03;13.13;93.72
71436;SHT31;59251;51.326;12.370;2023-09-30T05:27:30;13.13;93.58
71436;SHT31;59251;51.326;12.370;2023-09-30T05:29:57;13.03;93.94
71436;SHT31;59251;51.326;12.370;2023-09-30T05:32:25;13.08;93.80
71436;SHT31;59251;51.326;12.370;2023-09-30T05:34:52;13.02;93.77
71436;SHT31;59251;51.326;12.370;2023-09-30T05:37:19;13.03;93.69
71436;SHT31;59251;51.326;12.370;2023-09-30T05:39:47;13.01;93.84
71436;SHT31;59251;51.326;12.370;2023-09-30T05:42:15;12.96;93.58
71436;SHT31;59251;51.326;12.370;2023-09-30T05:44:42;13.02;93.48
71436;SHT31;59251;51.326;12.370;2023-09-30T05:47:09;12.96;93.30
71436;SHT31;59251;51.326;12.370;2023-09-30T05:49:36;12.82;93.58
71436;SHT31;59251;51.326;12.370;2023-09-30T05:52:03;12.88;93.29
71436;SHT31;59251;51.326;12.370;2023-09-30T05:54:30;12.85;93.64
71436;SHT31;59251;51.326;12.370;2023-09-30T05:56:57;12.88;93.41
71436;SHT31;59251;51.326;12.370;2023-09-30T05:59:27;12.93;93.13
71436;SHT31;59251;51.326;12.370;2023-09-30T06:01:54;12.98;92.88
71436;SHT31;59251;51.326;12.370;2023-09-30T06:04:21;12.96;92.75
71436;SHT31;59251;51.326;12.370;2023-09-30T06:06:48;12.89;93.10
71436;SHT31;59251;51.326;12.370;2023-09-30T06:09:15;12.84;93.09
71436;SHT31;59251;51.326;12.370;2023-09-30T06:11:41;12.88;92.66
71436;SHT31;59251;51.326;12.370;2023-09-30T06:14:08;12.96;92.30
71436;SHT31;59251;51.326;12.370;2023-09-30T06:16:36;12.92;92.34
71436;SHT31;59251;51.326;12.370;2023-09-30T06:19:03;13.01;92.03
71436;SHT31;59251;51.326;12.370;2023-09-30T06:21:31;13.13;91.43
71436;SHT31;59251;51.326;12.370;2023-09-30T06:24:00;13.26;90.97
71436;SHT31;59251;51.326;12.370;2023-09-30T06:26:26;13.36;90.54
71436;SHT31;59251;51.326;12.370;2023-09-30T06:28:54;13.53;90.00
71436;SHT31;59251;51.326;12.370;2023-09-30T06:31:21;13.64;89.96
71436;SHT31;59251;51.326;12.370;2023-09-30T06:33:49;13.70;89.39
71436;SHT31;59251;51.326;12.370;2023-09-30T06:36:16;13.78;89.41
71436;SHT31;59251;51.326;12.370;2023-09-30T06:38:43;13.89;88.72
71436;SHT31;59251;51.326;12.370;2023-09-30T06:41:17;14.01;88.14
71436;SHT31;59251;51.326;12.370;2023-09-30T06:43:44;14.11;87.73
71436;SHT31;59251;51.326;12.370;2023-09-30T06:46:12;14.14;87.60
71436;SHT31;59251;51.326;12.370;2023-09-30T06:48:39;14.12;87.71
71436;SHT31;59251;51.326;12.370;2023-09-30T06:51:12;14.14;87.34
71436;SHT31;59251;51.326;12.370;2023-09-30T06:53:40;14.18;87.09
71436;SHT31;59251;51.326;12.370;2023-09-30T06:56:07;14.24;87.26
71436;SHT31;59251;51.326;12.370;2023-09-30T06:58:33;14.29;86.50
71436;SHT31;59251;51.326;12.370;2023-09-30T07:01:00;14.32;86.55
71436;SHT31;59251;51.326;12.370;2023-09-30T07:03:27;14.40;86.26
71436;SHT31;59251;51.326;12.370;2023-09-30T07:05:55;14.49;86.27
71436;SHT31;59251;51.326;12.370;2023-09-30T07:08:27;14.56;86.01
71436;SHT31;59251;51.326;12.370;2023-09-30T07:10:55;14.62;85.78
71436;SHT31;59251;51.326;12.370;2023-09-30T07:13:22;14.66;85.34
71436;SHT31;59251;51.326;12.370;2023-09-30T07:15:49;14.66;85.73
71436;SHT31;59251;51.326;12.370;2023-09-30T07:18:16;14.67;85.61
71436;SHT31;59251;51.326;12.370;2023-09-30T07:20:43;14.73;85.44
71436;SHT31;59251;51.326;12.370;2023-09-30T07:23:09;14.74;84.75
71436;SHT31;59251;51.326;12.370;2023-09-30T07:25:40;14.77;84.82
71436;SHT31;59251;51.326;12.370;2023-09-30T07:28:06;14.83;84.14
71436;SHT31;59251;51.326;12.370;2023-09-30T07:30:37;14.87;84.37
71436;SHT31;59251;51.326;12.370;2023-09-30T07:33:04;14.81;84.32
71436;SHT31;59251;51.326;12.370;2023-09-30T07:35:31;14.91;84.35
71436;SHT31;59251;51.326;12.370;2023-09-30T07:37:58;14.94;83.75
71436;SHT31;59251;51.326;12.370;2023-09-30T07:40:25;15.08;84.68
71436;SHT31;59251;51.326;12.370;2023-09-30T07:42:54;15.07;83.32
71436;SHT31;59251;51.326;12.370;2023-09-30T07:45:21;15.10;82.67
71436;SHT31;59251;51.326;12.370;2023-09-30T07:47:48;15.29;82.43
71436;SHT31;59251;51.326;12.370;2023-09-30T07:50:16;15.41;81.56
71436;SHT31;59251;51.326;12.370;2023-09-30T07:52:43;15.43;80.96
71436;SHT31;59251;51.326;12.370;2023-09-30T07:55:11;15.59;80.96
71436;SHT31;59251;51.326;12.370;2023-09-30T07:57:39;15.36;81.32
71436;SHT31;59251;51.326;12.370;2023-09-30T08:00:09;15.45;81.17
71436;SHT31;59251;51.326;12.370;2023-09-30T08:02:40;15.41;81.40
71436;SHT31;59251;51.326;12.370;2023-09-30T08:05:08;15.34;81.77
71436;SHT31;59251;51.326;12.370;2023-09-30T08:07:35;15.36;81.64
71436;SHT31;59251;51.326;12.370;2023-09-30T08:10:02;15.21;81.85
71436;SHT31;59251;51.326;12.370;2023-09-30T08:12:30;15.24;82.06
71436;SHT31;59251;51.326;12.370;2023-09-30T08:14:57;15.15;82.38
71436;SHT31;59251;51.326;12.370;2023-09-30T08:17:25;15.10;82.69
71436;SHT31;59251;51.326;12.370;2023-09-30T08:19:52;15.18;82.62
71436;SHT31;59251;51.326;12.370;2023-09-30T08:22:19;15.22;82.53
71436;SHT31;59251;51.326;12.370;2023-09-30T08:24:46;15.27;81.93
71436;SHT31;59251;51.326;12.370;2023-09-30T08:27:13;15.34;81.80
71436;SHT31;59251;51.326;12.370;2023-09-30T08:29:40;15.48;81.80
71436;SHT31;59251;51.326;12.370;2023-09-30T08:32:06;15.53;81.43
71436;SHT31;59251;51.326;12.370;2023-09-30T08:34:34;15.74;81.16
71436;SHT31;59251;51.326;12.370;2023-09-30T08:37:01;15.85;80.69
71436;SHT31;59251;51.326;12.370;2023-09-30T08:39:28;15.89;80.23
71436;SHT31;59251;51.326;12.370;2023-09-30T08:41:55;16.03;80.34
71436;SHT31;59251;51.326;12.370;2023-09-30T08:44:22;16.07;79.62
71436;SHT31;59251;51.326;12.370;2023-09-30T08:46:49;16.24;79.28
71436;SHT31;59251;51.326;12.370;2023-09-30T08:49:17;16.16;79.29
71436;SHT31;59251;51.326;12.370;2023-09-30T08:51:48;16.28;79.15
71436;SHT31;59251;51.326;12.370;2023-09-30T08:54:16;16.36;78.97
71436;SHT31;59251;51.326;12.370;2023-09-30T08:56:47;16.49;78.29
71436;SHT31;59251;51.326;12.370;2023-09-30T08:59:15;16.59;78.00
71436;SHT31;59251;51.326;12.370;2023-09-30T09:01:41;16.82;77.87
71436;SHT31;59251;51.326;12.370;2023-09-30T09:04:08;16.87;77.51
71436;SHT31;59251;51.326;12.370;2023-09-30T09:06:36;17.17;76.95
71436;SHT31;59251;51.326;12.370;2023-09-30T09:09:14;17.14;76.64
71436;SHT31;59251;51.326;12.370;2023-09-30T09:11:42;17.35;76.00
71436;SHT31;59251;51.326;12.370;2023-09-30T09:14:09;17.40;75.99
71436;SHT31;59251;51.326;12.370;2023-09-30T09:16:36;17.27;76.53
71436;SHT31;59251;51.326;12.370;2023-09-30T09:19:18;17.38;75.68
71436;SHT31;59251;51.326;12.370;2023-09-30T09:21:55;17.41;75.38
71436;SHT31;59251;51.326;12.370;2023-09-30T09:24:31;17.52;75.70
71436;SHT31;59251;51.326;12.370;2023-09-30T09:27:04;17.55;74.85
71436;SHT31;59251;51.326;12.370;2023-09-30T09:29:32;17.61;74.77
71436;SHT31;59251;51.326;12.370;2023-09-30T09:32:12;17.51;74.69
71436;SHT31;59251;51.326;12.370;2023-09-30T09:34:40;17.40;74.58
71436;SHT31;59251;51.326;12.370;2023-09-30T09:37:15;17.42;74.42
71436;SHT31;59251;51.326;12.370;2023-09-30T09:39:54;17.65;74.21
71436;SHT31;59251;51.326;12.370;2023-09-30T09:42:27;17.81;74.15
71436;SHT31;59251;51.326;12.370;2023-09-30T09:44:56;17.86;73.59
71436;SHT31;59251;51.326;12.370;2023-09-30T09:47:24;17.82;73.10
71436;SHT31;59251;51.326;12.370;2023-09-30T09:49:51;17.77;72.60
71436;SHT31;59251;51.326;12.370;2023-09-30T09:52:21;17.78;73.04
71436;SHT31;59251;51.326;12.370;2023-09-30T09:54:48;17.74;72.75
71436;SHT31;59251;51.326;12.370;2023-09-30T09:57:19;17.98;71.24
71436;SHT31;59251;51.326;12.370;2023-09-30T09:59:46;18.10;72.00
71436;SHT31;59251;51.326;12.370;2023-09-30T10:02:14;18.17;71.59
71436;SHT31;59251;51.326;12.370;2023-09-30T10:04:43;18.17;71.81
71436;SHT31;59251;51.326;12.370;2023-09-30T10:07:12;18.06;71.76
71436;SHT31;59251;51.326;12.370;2023-09-30T10:09:45;18.17;71.38
71436;SHT31;59251;51.326;12.370;2023-09-30T10:12:14;18.30;70.14
71436;SHT31;59251;51.326;12.370;2023-09-30T10:14:42;18.36;70.20
71436;SHT31;59251;51.326;12.370;2023-09-30T10:17:09;18.26;69.75
71436;SHT31;59251;51.326;12.370;2023-09-30T10:20:03;18.29;70.25
71436;SHT31;59251;51.326;12.370;2023-09-30T10:22:30;18.61;69.25
71436;SHT31;59251;51.326;12.370;2023-09-30T10:24:58;18.96;68.53
71436;SHT31;59251;51.326;12.370;2023-09-30T10:27:32;19.01;68.53
71436;SHT31;59251;51.326;12.370;2023-09-30T10:30:06;19.16;68.98
71436;SHT31;59251;51.326;12.370;2023-09-30T10:33:10;19.33;68.70
71436;SHT31;59251;51.326;12.370;2023-09-30T10:35:48;19.16;68.87
71436;SHT31;59251;51.326;12.370;2023-09-30T10:38:36;19.23;66.66
71436;SHT31;59251;51.326;12.370;2023-09-30T10:41:03;19.34;66.49
71436;SHT31;59251;51.326;12.370;2023-09-30T10:43:30;19.09;66.73
71436;SHT31;59251;51.326;12.370;2023-09-30T10:45:59;19.02;67.53
71436;SHT31;59251;51.326;12.370;2023-09-30T10:48:35;18.58;67.41
71436;SHT31;59251;51.326;12.370;2023-09-30T10:51:13;18.50;66.78
71436;SHT31;59251;51.326;12.370;2023-09-30T10:53:45;18.61;66.06
71436;SHT31;59251;51.326;12.370;2023-09-30T10:56:13;18.84;65.11
71436;SHT31;59251;51.326;12.370;2023-09-30T10:58:43;18.72;64.73
71436;SHT31;59251;51.326;12.370;2023-09-30T11:01:13;18.85;64.84
71436;SHT31;59251;51.326;12.370;2023-09-30T11:03:40;18.98;65.63
71436;SHT31;59251;51.326;12.370;2023-09-30T11:06:07;19.23;64.41
71436;SHT31;59251;51.326;12.370;2023-09-30T11:08:40;19.30;64.38
71436;SHT31;59251;51.326;12.370;2023-09-30T11:11:10;19.29;62.78
71436;SHT31;59251;51.326;12.370;2023-09-30T11:13:37;19.50;63.03
71436;SHT31;59251;51.326;12.370;2023-09-30T11:16:04;19.54;63.50
71436;SHT31;59251;51.326;12.370;2023-09-30T11:18:32;19.53;63.12
71436;SHT31;59251;51.326;12.370;2023-09-30T11:21:07;19.42;63.15
71436;SHT31;59251;51.326;12.370;2023-09-30T11:23:34;19.42;63.77
71436;SHT31;59251;51.326;12.370;2023-09-30T11:26:01;19.02;65.51
71436;SHT31;59251;51.326;12.370;2023-09-30T11:28:36;18.81;65.90
71436;SHT31;59251;51.326;12.370;2023-09-30T11:31:03;19.11;65.77
71436;SHT31;59251;51.326;12.370;2023-09-30T11:33:33;19.75;64.45
71436;SHT31;59251;51.326;12.370;2023-09-30T11:36:13;20.46;61.73
71436;SHT31;59251;51.326;12.370;2023-09-30T11:38:45;21.05;60.24
71436;SHT31;59251;51.326;12.370;2023-09-30T11:41:12;21.25;57.53
71436;SHT31;59251;51.326;12.370;2023-09-30T11:43:39;21.66;56.48
71436;SHT31;59251;51.326;12.370;2023-09-30T11:46:08;21.41;56.47
71436;SHT31;59251;51.326;12.370;2023-09-30T11:48:36;21.05;58.34
71436;SHT31;59251;51.326;12.370;2023-09-30T11:51:03;21.38;57.83
71436;SHT31;59251;51.326;12.370;2023-09-30T11:53:30;21.90;57.40
71436;SHT31;59251;51.326;12.370;2023-09-30T11:55:57;22.58;56.20
71436;SHT31;59251;51.326;12.370;2023-09-30T11:58:26;22.68;55.67
71436;SHT31;59251;51.326;12.370;2023-09-30T12:00:53;22.40;55.82
71436;SHT31;59251;51.326;12.370;2023-09-30T12:03:20;22.58;54.70
71436;SHT31;59251;51.326;12.370;2023-09-30T12:05:49;23.10;54.19
71436;SHT31;59251;51.326;12.370;2023-09-30T12:08:16;23.27;53.78
71436;SHT31;59251;51.326;12.370;2023-09-30T12:10:44;23.09;54.19
71436;SHT31;59251;51.326;12.370;2023-09-30T12:13:11;23.30;53.65
71436;SHT31;59251;51.326;12.370;2023-09-30T12:15:38;23.36;53.44
71436;SHT31;59251;51.326;12.370;2023-09-30T12:18:05;22.96;53.77
71436;SHT31;59251;51.326;12.370;2023-09-30T12:20:32;23.82;52.27
71436;SHT31;59251;51.326;12.370;2023-09-30T12:23:01;23.86;51.89
71436;SHT31;59251;51.326;12.370;2023-09-30T12:25:30;25.25;49.50
71436;SHT31;59251;51.326;12.370;2023-09-30T12:27:58;25.25;49.35
71436;SHT31;59251;51.326;12.370;2023-09-30T12:30:25;23.78;51.87
71436;SHT31;59251;51.326;12.370;2023-09-30T12:32:52;22.62;54.25
71436;SHT31;59251;51.326;12.370;2023-09-30T12:35:20;24.10;51.66
71436;SHT31;59251;51.326;12.370;2023-09-30T12:37:47;24.26;51.85
71436;SHT31;59251;51.326;12.370;2023-09-30T12:40:15;25.01;50.32
71436;SHT31;59251;51.326;12.370;2023-09-30T12:42:43;25.08;50.59
71436;SHT31;59251;51.326;12.370;2023-09-30T12:45:10;25.18;50.30
71436;SHT31;59251;51.326;12.370;2023-09-30T12:47:38;24.70;50.68
71436;SHT31;59251;51.326;12.370;2023-09-30T12:50:06;25.84;48.82
71436;SHT31;59251;51.326;12.370;2023-09-30T12:52:34;26.35;48.26
71436;SHT31;59251;51.326;12.370;2023-09-30T12:55:01;26.22;47.69
71436;SHT31;59251;51.326;12.370;2023-09-30T12:57:29;26.38;47.35
71436;SHT31;59251;51.326;12.370;2023-09-30T12:59:56;25.69;48.57
71436;SHT31;59251;51.326;12.370;2023-09-30T13:02:22;25.28;49.77
71436;SHT31;59251;51.326;12.370;2023-09-30T13:04:49;25.18;49.64
71436;SHT31;59251;51.326;12.370;2023-09-30T13:07:16;24.63;50.19
71436;SHT31;59251;51.326;12.370;2023-09-30T13:09:43;25.29;48.94
71436;SHT31;59251;51.326;12.370;2023-09-30T13:12:10;25.87;48.06
71436;SHT31;59251;51.326;12.370;2023-09-30T13:14:38;25.15;48.27
71436;SHT31;59251;51.326;12.370;2023-09-30T13:17:05;26.07;46.53
71436;SHT31;59251;51.326;12.370;2023-09-30T13:19:32;25.90;47.50
71436;SHT31;59251;51.326;12.370;2023-09-30T13:21:59;26.62;46.79
71436;SHT31;59251;51.326;12.370;2023-09-30T13:24:26;25.42;48.11
71436;SHT31;59251;51.326;12.370;2023-09-30T13:26:53;26.53;46.42
71436;SHT31;59251;51.326;12.370;2023-09-30T13:29:20;25.49;48.18
71436;SHT31;59251;51.326;12.370;2023-09-30T13:31:48;24.01;51.01
71436;SHT31;59251;51.326;12.370;2023-09-30T13:34:15;24.55;50.37
71436;SHT31;59251;51.326;12.370;2023-09-30T13:36:41;24.66;49.66
71436;SHT31;59251;51.326;12.370;2023-09-30T13:39:08;25.86;48.20
71436;SHT31;59251;51.326;12.370;2023-09-30T13:41:38;26.68;46.63
71436;SHT31;59251;51.326;12.370;2023-09-30T13:44:05;26.65;46.21
71436;SHT31;59251;51.326;12.370;2023-09-30T13:46:32;26.04;46.90
71436;SHT31;59251;51.326;12.370;2023-09-30T13:49:00;26.65;46.43
71436;SHT31;59251;51.326;12.370;2023-09-30T13:51:27;26.92;45.74
71436;SHT31;59251;51.326;12.370;2023-09-30T13:53:53;27.45;44.50
71436;SHT31;59251;51.326;12.370;2023-09-30T13:56:20;27.31;45.13
71436;SHT31;59251;51.326;12.370;2023-09-30T13:58:47;27.91;44.48
71436;SHT31;59251;51.326;12.370;2023-09-30T14:01:14;27.40;45.30
71436;SHT31;59251;51.326;12.370;2023-09-30T14:03:41;27.71;44.56
71436;SHT31;59251;51.326;12.370;2023-09-30T14:06:13;27.81;44.33
71436;SHT31;59251;51.326;12.370;2023-09-30T14:08:40;27.48;44.68
71436;SHT31;59251;51.326;12.370;2023-09-30T14:11:08;26.11;47.28
71436;SHT31;59251;51.326;12.370;2023-09-30T14:13:34;26.87;45.49
71436;SHT31;59251;51.326;12.370;2023-09-30T14:16:02;26.32;46.29
71436;SHT31;59251;51.326;12.370;2023-09-30T14:18:28;27.14;45.31
71436;SHT31;59251;51.326;12.370;2023-09-30T14:20:55;27.26;44.98
71436;SHT31;59251;51.326;12.370;2023-09-30T14:23:23;27.30;44.83
71436;SHT31;59251;51.326;12.370;2023-09-30T14:25:53;27.08;44.45
71436;SHT31;59251;51.326;12.370;2023-09-30T14:28:21;27.91;43.31
71436;SHT31;59251;51.326;12.370;2023-09-30T14:30:47;26.90;44.50
71436;SHT31;59251;51.326;12.370;2023-09-30T14:33:15;27.73;43.51
71436;SHT31;59251;51.326;12.370;2023-09-30T14:35:42;27.45;44.07
71436;SHT31;59251;51.326;12.370;2023-09-30T14:38:09;26.96;45.10
71436;SHT31;59251;51.326;12.370;2023-09-30T14:40:38;27.55;44.23
71436;SHT31;59251;51.326;12.370;2023-09-30T14:43:05;26.49;45.72
71436;SHT31;59251;51.326;12.370;2023-09-30T14:45:37;26.86;44.90
71436;SHT31;59251;51.326;12.370;2023-09-30T14:48:05;26.85;44.84
71436;SHT31;59251;51.326;12.370;2023-09-30T14:50:31;26.35;45.65
71436;SHT31;59251;51.326;12.370;2023-09-30T14:52:58;26.21;45.75
71436;SHT31;59251;51.326;12.370;2023-09-30T14:55:25;26.78;44.83
71436;SHT31;59251;51.326;12.370;2023-09-30T14:57:53;26.28;45.75
71436;SHT31;59251;51.326;12.370;2023-09-30T15:00:20;26.63;44.51
71436;SHT31;59251;51.326;12.370;2023-09-30T15:02:50;26.53;45.07
71436;SHT31;59251;51.326;12.370;2023-09-30T15:05:16;26.25;44.96
71436;SHT31;59251;51.326;12.370;2023-09-30T15:07:44;26.25;44.84
71436;SHT31;59251;51.326;12.370;2023-09-30T15:10:11;26.60;44.31
71436;SHT31;59251;51.326;12.370;2023-09-30T15:12:37;27.04;44.03
71436;SHT31;59251;51.326;12.370;2023-09-30T15:15:07;25.56;46.39
71436;SHT31;59251;51.326;12.370;2023-09-30T15:17:34;25.60;46.32
71436;SHT31;59251;51.326;12.370;2023-09-30T15:20:01;25.08;46.79
71436;SHT31;59251;51.326;12.370;2023-09-30T15:22:27;26.07;45.83